createdAt,value
2023-04-30T00:00:27.414Z,10.87
2023-04-30T00:03:29.487Z,10.87
2023-04-30T00:06:31.897Z,10.96
2023-04-30T00:09:33.772Z,10.95
2023-04-30T00:12:35.943Z,10.94
2023-04-30T00:15:37.947Z,10.98
2023-04-30T00:18:39.838Z,10.94
2023-04-30T00:21:42.216Z,11.04
2023-04-30T00:24:43.986Z,11.03
2023-04-30T00:27:46.016Z,11.01
2023-04-30T00:30:48.184Z,11.04
2023-04-30T00:33:49.993Z,11.00
2023-04-30T00:36:51.892Z,10.96
2023-04-30T00:39:53.822Z,10.92
2023-04-30T00:42:55.984Z,10.94
2023-04-30T00:45:58.858Z,10.97
2023-04-30T00:49:04.734Z,10.98
2023-04-30T00:52:07.180Z,11.03
2023-04-30T00:55:12.769Z,11.01
2023-04-30T00:58:15.325Z,11.02
2023-04-30T01:01:18.174Z,11.04
2023-04-30T01:04:20.688Z,11.08
2023-04-30T01:07:22.485Z,11.06
2023-04-30T01:10:30.715Z,11.06
2023-04-30T01:13:41.330Z,11.13
2023-04-30T01:16:55.348Z,10.99
2023-04-30T01:19:57.934Z,11.08
2023-04-30T01:23:12.475Z,11.11
2023-04-30T01:26:16.399Z,11.10
2023-04-30T01:29:20.054Z,11.08
2023-04-30T01:32:21.839Z,11.08
2023-04-30T01:35:48.510Z,11.05
2023-04-30T01:39:07.072Z,10.98
2023-04-30T01:42:18.747Z,10.94
2023-04-30T01:45:36.676Z,10.92
2023-04-30T01:48:56.205Z,10.90
2023-04-30T01:52:12.062Z,10.87
2023-04-30T01:55:43.972Z,10.89
2023-04-30T01:58:46.718Z,10.81
2023-04-30T02:01:48.630Z,10.71
2023-04-30T02:04:50.796Z,10.70
2023-04-30T02:07:53.051Z,10.77
2023-04-30T02:10:55.772Z,10.81
2023-04-30T02:13:57.633Z,10.83
2023-04-30T02:16:59.363Z,10.82
2023-04-30T02:20:01.366Z,10.81
2023-04-30T02:23:03.264Z,10.80
2023-04-30T02:26:05.151Z,10.77
2023-04-30T02:29:07.026Z,10.79
2023-04-30T02:32:09.208Z,10.79
2023-04-30T02:35:11.029Z,10.79
2023-04-30T02:38:12.831Z,10.77
2023-04-30T02:41:14.661Z,10.78
2023-04-30T02:44:16.634Z,10.78
2023-04-30T02:47:18.452Z,10.75
2023-04-30T02:50:20.671Z,10.58
2023-04-30T02:53:22.521Z,10.55
2023-04-30T02:56:24.299Z,10.51
2023-04-30T02:59:27.142Z,10.40
2023-04-30T03:02:28.930Z,10.43
2023-04-30T03:05:31.030Z,10.54
2023-04-30T03:08:33.417Z,10.48
2023-04-30T03:11:37.717Z,10.46
2023-04-30T03:14:39.663Z,10.34
2023-04-30T03:17:43.124Z,10.15
2023-04-30T03:20:46.730Z,10.15
2023-04-30T03:23:49.097Z,10.12
2023-04-30T03:26:51.978Z,10.18
2023-04-30T03:29:54.007Z,10.02
2023-04-30T03:32:56.062Z,10.01
2023-04-30T03:35:57.923Z,9.98
2023-04-30T03:38:59.848Z,10.01
2023-04-30T03:42:03.819Z,10.01
2023-04-30T03:45:06.125Z,10.08
2023-04-30T03:48:07.993Z,10.14
2023-04-30T03:51:10.311Z,10.10
2023-04-30T03:54:12.256Z,10.15
2023-04-30T03:57:14.150Z,10.44
2023-04-30T04:00:16.341Z,10.86
2023-04-30T04:03:18.371Z,11.24
2023-04-30T04:06:20.542Z,11.42
2023-04-30T04:09:22.719Z,11.54
2023-04-30T04:12:24.689Z,11.68
2023-04-30T04:15:26.613Z,11.73
2023-04-30T04:18:28.541Z,11.78
2023-04-30T04:21:31.258Z,11.83
2023-04-30T04:24:33.651Z,11.86
2023-04-30T04:27:35.662Z,12.03
2023-04-30T04:30:37.825Z,12.20
2023-04-30T04:33:39.640Z,12.68
2023-04-30T04:36:41.599Z,14.23
2023-04-30T04:39:45.077Z,15.19
2023-04-30T04:42:49.989Z,17.65
2023-04-30T04:45:52.342Z,18.13
2023-04-30T04:48:54.343Z,19.31
2023-04-30T04:51:56.190Z,20.34
2023-04-30T04:54:58.409Z,21.20
2023-04-30T04:58:00.178Z,21.09
2023-04-30T05:01:05.798Z,18.10
2023-04-30T05:04:09.497Z,17.38
2023-04-30T05:07:11.378Z,16.66
2023-04-30T05:10:13.294Z,16.07
2023-04-30T05:13:15.138Z,15.76
2023-04-30T05:16:17.427Z,15.76
2023-04-30T05:19:19.393Z,15.51
2023-04-30T05:22:21.788Z,15.64
2023-04-30T05:25:24.132Z,15.63
2023-04-30T05:28:26.662Z,15.66
2023-04-30T05:31:28.536Z,15.72
2023-04-30T05:34:30.837Z,15.65
2023-04-30T05:37:32.857Z,15.69
2023-04-30T05:40:34.770Z,15.67
2023-04-30T05:43:36.618Z,15.69
2023-04-30T05:46:38.580Z,15.60
2023-04-30T05:49:40.770Z,15.69
2023-04-30T05:52:42.660Z,15.88
2023-04-30T05:55:44.516Z,16.00
2023-04-30T05:58:46.417Z,16.17
2023-04-30T06:01:48.312Z,16.24
2023-04-30T06:04:50.523Z,16.42
2023-04-30T06:07:52.400Z,16.60
2023-04-30T06:10:54.441Z,16.94
2023-04-30T06:13:56.861Z,17.18
2023-04-30T06:16:59.220Z,17.40
2023-04-30T06:20:06.301Z,17.46
2023-04-30T06:23:09.269Z,17.56
2023-04-30T06:26:11.113Z,17.81
2023-04-30T06:29:12.880Z,17.96
2023-04-30T06:32:14.729Z,18.19
2023-04-30T06:35:16.608Z,18.04
2023-04-30T06:38:18.469Z,18.17
2023-04-30T06:41:21.118Z,18.56
2023-04-30T06:44:23.186Z,18.47
2023-04-30T06:47:24.987Z,18.57
2023-04-30T06:50:27.277Z,18.62
2023-04-30T06:53:29.165Z,18.49
2023-04-30T06:56:31.530Z,18.66
2023-04-30T06:59:33.878Z,18.57
2023-04-30T07:02:36.273Z,18.57
2023-04-30T07:05:38.623Z,18.75
2023-04-30T07:08:41.366Z,18.70
2023-04-30T07:11:43.346Z,18.82
2023-04-30T07:14:45.452Z,18.96
2023-04-30T07:17:47.376Z,19.07
2023-04-30T07:20:49.573Z,19.14
2023-04-30T07:23:51.680Z,19.17
2023-04-30T07:26:53.570Z,19.02
2023-04-30T07:29:56.134Z,19.05
2023-04-30T07:32:58.481Z,18.91
2023-04-30T07:36:00.875Z,19.22
2023-04-30T07:39:02.706Z,19.48
2023-04-30T07:42:05.190Z,19.74
2023-04-30T07:45:07.352Z,19.57
2023-04-30T07:48:09.168Z,19.79
2023-04-30T07:51:11.002Z,20.05
2023-04-30T07:54:13.267Z,20.30
2023-04-30T07:57:15.035Z,20.18
2023-04-30T08:00:17.608Z,20.21
2023-04-30T08:03:20.640Z,20.43
2023-04-30T08:06:23.689Z,20.51
2023-04-30T08:09:26.102Z,20.50
2023-04-30T08:12:28.101Z,20.41
2023-04-30T08:15:30.741Z,20.77
2023-04-30T08:18:32.680Z,20.95
2023-04-30T08:21:34.935Z,20.15
2023-04-30T08:24:37.260Z,20.38
2023-04-30T08:27:39.557Z,20.17
2023-04-30T08:30:41.707Z,20.31
2023-04-30T08:33:43.838Z,20.60
2023-04-30T08:36:45.632Z,20.97
2023-04-30T08:39:47.756Z,20.96
2023-04-30T08:42:56.807Z,21.22
2023-04-30T08:45:58.934Z,21.10
2023-04-30T08:49:00.780Z,21.22
2023-04-30T08:52:02.894Z,21.22
2023-04-30T08:55:07.799Z,20.87
2023-04-30T09:01:12.816Z,21.70
2023-04-30T09:04:14.914Z,21.85
2023-04-30T09:07:18.490Z,21.67
2023-04-30T09:10:22.959Z,21.69
2023-04-30T09:13:24.748Z,21.77
2023-04-30T09:16:30.049Z,21.86
2023-04-30T09:19:32.457Z,21.83
2023-04-30T09:22:35.851Z,21.96
2023-04-30T09:25:42.070Z,21.99
2023-04-30T09:28:56.488Z,21.76
2023-04-30T09:32:08.937Z,21.83
2023-04-30T09:35:32.252Z,21.94
2023-04-30T09:38:34.277Z,22.11
2023-04-30T09:41:36.153Z,21.81
2023-04-30T09:44:40.145Z,21.62
2023-04-30T09:47:42.014Z,21.72
2023-04-30T09:50:45.133Z,21.54
2023-04-30T09:53:47.547Z,21.16
2023-04-30T09:56:50.979Z,20.89
2023-04-30T09:59:53.870Z,21.18
2023-04-30T10:02:56.145Z,21.25
2023-04-30T10:05:58.101Z,21.05
2023-04-30T10:09:00.273Z,20.90
2023-04-30T10:12:03.976Z,21.00
2023-04-30T10:15:34.904Z,20.77
2023-04-30T10:18:39.552Z,20.68
2023-04-30T10:21:42.917Z,20.30
2023-04-30T10:24:45.387Z,20.86
2023-04-30T10:27:47.220Z,20.77
2023-04-30T10:30:50.537Z,20.65
2023-04-30T10:33:58.354Z,20.75
2023-04-30T10:37:04.384Z,20.82
2023-04-30T10:40:09.168Z,20.68
2023-04-30T10:43:11.535Z,21.13
2023-04-30T10:46:22.328Z,21.01
2023-04-30T10:49:26.499Z,21.37
2023-04-30T10:55:32.120Z,21.75
2023-04-30T10:58:35.998Z,21.81
2023-04-30T11:02:00.066Z,21.90
2023-04-30T11:05:08.180Z,21.86
2023-04-30T11:08:13.003Z,22.11
2023-04-30T11:11:20.986Z,21.90
2023-04-30T11:14:23.142Z,21.53
2023-04-30T11:17:25.197Z,21.65
2023-04-30T11:20:28.001Z,21.82
2023-04-30T11:27:08.857Z,22.10
2023-04-30T11:30:18.294Z,22.45
2023-04-30T11:33:20.846Z,22.39
2023-04-30T11:36:22.868Z,21.66
2023-04-30T11:39:26.295Z,21.69
2023-04-30T11:42:30.414Z,21.57
2023-04-30T11:45:32.218Z,21.43
2023-04-30T11:48:42.637Z,21.26
2023-04-30T11:51:49.139Z,21.21
2023-04-30T11:54:50.948Z,20.86
2023-04-30T11:57:55.924Z,20.88
2023-04-30T12:00:59.896Z,20.89
2023-04-30T12:04:04.167Z,20.65
2023-04-30T12:07:08.750Z,21.05
2023-04-30T12:10:10.815Z,21.22
2023-04-30T12:13:16.773Z,21.21
2023-04-30T12:16:18.578Z,21.31
2023-04-30T12:19:23.396Z,21.49
2023-04-30T12:22:25.761Z,21.41
2023-04-30T12:25:29.178Z,21.53
2023-04-30T12:28:31.039Z,21.71
2023-04-30T12:31:33.838Z,21.80
2023-04-30T12:34:38.205Z,22.23
2023-04-30T12:37:44.719Z,22.35
2023-04-30T12:40:48.935Z,22.07
2023-04-30T12:43:50.815Z,22.20
2023-04-30T12:46:56.596Z,22.52
2023-04-30T12:49:58.795Z,22.66
2023-04-30T12:53:04.913Z,22.16
2023-04-30T12:56:07.910Z,22.29
2023-04-30T12:59:16.427Z,22.41
2023-04-30T13:02:18.514Z,22.36
2023-04-30T13:05:20.688Z,22.38
2023-04-30T13:08:22.686Z,22.47
2023-04-30T13:11:26.298Z,22.44
2023-04-30T13:14:29.372Z,22.63
2023-04-30T13:17:31.167Z,22.71
2023-04-30T13:20:33.525Z,23.07
2023-04-30T13:23:48.651Z,23.22
2023-04-30T13:26:53.971Z,22.92
2023-04-30T13:29:56.056Z,23.04
2023-04-30T13:32:59.359Z,23.17
2023-04-30T13:36:01.709Z,22.96
2023-04-30T13:39:04.883Z,23.28
2023-04-30T13:42:07.072Z,23.13
2023-04-30T13:45:09.604Z,23.15
2023-04-30T13:48:11.477Z,22.64
2023-04-30T13:51:13.901Z,22.92
2023-04-30T13:54:16.736Z,22.60
2023-04-30T13:57:18.807Z,22.79
2023-04-30T14:00:21.956Z,22.76
2023-04-30T14:03:23.873Z,22.80
2023-04-30T14:06:26.164Z,22.58
2023-04-30T14:09:28.119Z,22.75
2023-04-30T14:12:30.701Z,22.75
2023-04-30T14:15:32.978Z,22.79
2023-04-30T14:18:35.035Z,22.95
2023-04-30T14:21:36.938Z,22.92
2023-04-30T14:24:40.008Z,22.54
2023-04-30T14:27:42.090Z,21.84
2023-04-30T14:30:44.164Z,20.62
2023-04-30T14:33:46.029Z,19.39
2023-04-30T14:36:48.166Z,18.74
2023-04-30T14:39:50.063Z,17.23
2023-04-30T14:42:52.043Z,17.21
2023-04-30T14:45:53.957Z,16.65
2023-04-30T14:48:55.964Z,16.89
2023-04-30T14:51:58.727Z,16.28
2023-04-30T14:55:01.040Z,16.22
2023-04-30T14:58:02.990Z,16.11
2023-04-30T15:01:05.546Z,16.19
2023-04-30T15:04:07.969Z,16.14
2023-04-30T15:07:10.274Z,15.84
2023-04-30T15:10:12.318Z,15.92
2023-04-30T15:13:14.996Z,16.13
2023-04-30T15:16:17.220Z,16.32
2023-04-30T15:19:19.036Z,16.46
2023-04-30T15:22:21.193Z,16.70
2023-04-30T15:25:24.207Z,16.75
2023-04-30T15:28:26.266Z,16.84
2023-04-30T15:31:28.565Z,16.94
2023-04-30T15:34:31.084Z,16.97
2023-04-30T15:37:34.621Z,16.92
2023-04-30T15:40:37.052Z,16.96
2023-04-30T15:43:39.132Z,16.87
2023-04-30T15:46:41.651Z,16.94
2023-04-30T15:49:43.613Z,16.91
2023-04-30T15:52:45.940Z,16.79
2023-04-30T15:55:48.724Z,16.84
2023-04-30T15:58:50.924Z,16.79
2023-04-30T16:01:52.819Z,16.77
2023-04-30T16:04:54.690Z,16.59
2023-04-30T16:07:56.551Z,16.58
2023-04-30T16:10:59.911Z,16.61
2023-04-30T16:14:02.598Z,16.60
2023-04-30T16:17:04.599Z,16.03
2023-04-30T16:20:08.439Z,15.77
2023-04-30T16:23:10.457Z,15.76
2023-04-30T16:26:12.221Z,15.79
2023-04-30T16:29:14.076Z,15.72
2023-04-30T16:32:16.993Z,15.65
2023-04-30T16:35:18.982Z,15.81
2023-04-30T16:38:21.979Z,15.96
2023-04-30T16:41:23.918Z,15.63
2023-04-30T16:44:27.167Z,15.48
2023-04-30T16:47:29.060Z,15.69
2023-04-30T16:50:31.551Z,15.91
2023-04-30T16:53:33.373Z,15.84
2023-04-30T16:56:35.135Z,16.04
2023-04-30T16:59:37.589Z,16.13
2023-04-30T17:02:41.203Z,16.15
2023-04-30T17:05:43.122Z,16.11
2023-04-30T17:08:44.944Z,16.03
2023-04-30T17:11:47.095Z,16.02
2023-04-30T17:14:48.949Z,16.13
2023-04-30T17:17:51.206Z,16.11
2023-04-30T17:20:53.121Z,16.16
2023-04-30T17:23:55.862Z,16.20
2023-04-30T17:26:59.353Z,16.23
2023-04-30T17:30:02.114Z,16.24
2023-04-30T17:33:05.998Z,16.17
2023-04-30T17:36:08.927Z,16.05
2023-04-30T17:39:11.414Z,16.07
2023-04-30T17:42:13.407Z,16.04
2023-04-30T17:45:15.382Z,15.95
2023-04-30T17:48:17.805Z,15.90
2023-04-30T17:51:19.770Z,15.88
2023-04-30T17:54:22.017Z,15.84
2023-04-30T17:57:24.494Z,15.79
2023-04-30T18:00:26.840Z,15.77
2023-04-30T18:03:29.373Z,15.63
2023-04-30T18:06:31.678Z,15.66
2023-04-30T18:09:33.735Z,15.59
2023-04-30T18:12:36.436Z,15.58
2023-04-30T18:15:38.655Z,15.54
2023-04-30T18:18:41.161Z,15.53
2023-04-30T18:21:43.397Z,15.47
2023-04-30T18:24:45.220Z,15.32
2023-04-30T18:27:47.062Z,15.33
2023-04-30T18:30:49.866Z,15.27
2023-04-30T18:33:51.892Z,15.19
2023-04-30T18:36:54.090Z,15.12
2023-04-30T18:39:56.165Z,14.97
2023-04-30T18:42:59.026Z,14.83
2023-04-30T18:46:01.073Z,14.78
2023-04-30T18:49:05.519Z,14.67
2023-04-30T18:52:07.796Z,14.47
2023-04-30T18:55:11.728Z,14.32
2023-04-30T18:58:13.938Z,14.19
2023-04-30T19:01:16.277Z,14.03
2023-04-30T19:04:18.500Z,13.93
2023-04-30T19:07:21.134Z,13.82
2023-04-30T19:10:23.109Z,13.70
2023-04-30T19:13:26.348Z,13.69
2023-04-30T19:16:28.456Z,13.68
2023-04-30T19:19:30.889Z,13.65
2023-04-30T19:22:32.853Z,13.55
2023-04-30T19:25:37.306Z,13.51
2023-04-30T19:28:39.520Z,13.45
2023-04-30T19:31:41.718Z,13.45
2023-04-30T19:34:46.925Z,13.38
2023-04-30T19:37:48.749Z,13.32
2023-04-30T19:40:52.492Z,13.29
2023-04-30T19:43:54.763Z,13.21
2023-04-30T19:46:56.865Z,12.57
2023-04-30T19:49:58.846Z,12.41
2023-04-30T19:53:01.433Z,12.45
2023-04-30T19:56:03.756Z,12.46
2023-04-30T19:59:06.206Z,12.50
2023-04-30T20:02:10.121Z,12.47
2023-04-30T20:05:12.583Z,12.36
2023-04-30T20:08:14.477Z,12.36
2023-04-30T20:11:16.697Z,12.35
2023-04-30T20:14:19.013Z,12.31
2023-04-30T20:17:21.145Z,12.23
2023-04-30T20:20:26.587Z,12.19
2023-04-30T20:23:29.555Z,11.24
2023-04-30T20:26:32.134Z,11.45
2023-04-30T20:29:44.646Z,11.51
2023-04-30T20:32:47.149Z,11.33
2023-04-30T20:35:49.576Z,11.53
2023-04-30T20:38:54.319Z,11.66
2023-04-30T20:41:56.236Z,11.65
2023-04-30T20:44:58.414Z,11.49
2023-04-30T20:48:00.594Z,11.52
2023-04-30T20:51:02.994Z,11.56
2023-04-30T20:54:05.029Z,11.58
2023-04-30T20:57:07.852Z,11.23
2023-04-30T21:00:10.250Z,11.05
2023-04-30T21:03:12.211Z,11.05
2023-04-30T21:06:15.967Z,11.09
2023-04-30T21:09:17.885Z,11.18
2023-04-30T21:12:19.699Z,11.30
2023-04-30T21:15:21.903Z,11.36
2023-04-30T21:18:26.520Z,11.36
2023-04-30T21:21:29.065Z,11.45
2023-04-30T21:24:31.376Z,11.48
2023-04-30T21:27:33.982Z,11.43
2023-04-30T21:30:36.591Z,11.43
2023-04-30T21:33:39.071Z,11.41
2023-04-30T21:36:41.393Z,11.35
2023-04-30T21:39:43.527Z,11.35
2023-04-30T21:42:45.462Z,11.05
2023-04-30T21:45:47.317Z,11.16
2023-04-30T21:48:49.084Z,11.19
2023-04-30T21:51:50.832Z,10.91
2023-04-30T21:54:52.677Z,11.03
2023-04-30T21:57:55.182Z,11.01
2023-04-30T22:00:57.111Z,10.94
2023-04-30T22:03:59.766Z,10.94
2023-04-30T22:07:01.585Z,10.73
2023-04-30T22:10:05.674Z,10.73
2023-04-30T22:13:07.746Z,10.55
2023-04-30T22:16:09.567Z,10.63
2023-04-30T22:19:11.725Z,10.76
2023-04-30T22:22:13.768Z,10.84
2023-04-30T22:25:15.695Z,10.73
2023-04-30T22:28:19.217Z,10.80
2023-04-30T22:31:21.900Z,10.76
2023-04-30T22:34:24.155Z,10.74
2023-04-30T22:37:26.433Z,10.69
2023-04-30T22:40:28.424Z,10.65
2023-04-30T22:43:31.036Z,10.64
2023-04-30T22:46:34.095Z,10.54
2023-04-30T22:49:37.052Z,10.58
2023-04-30T22:52:39.091Z,10.57
2023-04-30T22:55:41.094Z,10.41
2023-04-30T22:58:43.009Z,10.46
2023-04-30T23:01:45.269Z,10.39
2023-04-30T23:04:47.384Z,10.44
2023-04-30T23:07:49.607Z,10.44
2023-04-30T23:10:53.228Z,10.44
2023-04-30T23:13:55.798Z,10.30
2023-04-30T23:16:57.792Z,9.80
2023-04-30T23:19:59.969Z,10.03
2023-04-30T23:23:01.936Z,9.89
2023-04-30T23:26:04.068Z,9.71
2023-04-30T23:29:05.866Z,9.77
2023-04-30T23:32:07.892Z,9.71
2023-04-30T23:35:10.416Z,9.76
2023-04-30T23:38:13.031Z,9.76
2023-04-30T23:41:15.171Z,9.71
2023-04-30T23:44:16.971Z,9.69
2023-04-30T23:47:19.501Z,9.64
2023-04-30T23:50:22.075Z,9.60
2023-04-30T23:53:23.911Z,9.44
2023-04-30T23:56:25.831Z,9.43
2023-04-30T23:59:27.910Z,9.41
